sensor_id;sensor_type;location;lat;lon;timestamp;pressure;altitude;pressure_sealevel;temperature;humidity
21824;BME280;11074;48.596;9.238;2023-04-01T00:00:48;96953.91;;;10.19;91.32
21824;BME280;11074;48.596;9.238;2023-04-01T00:03:14;96947.22;;;10.21;91.10
21824;BME280;11074;48.596;9.238;2023-04-01T00:05:40;96944.00;;;10.19;91.67
21824;BME280;11074;48.596;9.238;2023-04-01T00:08:06;96956.81;;;10.22;91.60
21824;BME280;11074;48.596;9.238;2023-04-01T00:10:31;96956.53;;;10.24;91.63
21824;BME280;11074;48.596;9.238;2023-04-01T00:12:57;96953.88;;;10.24;90.26
21824;BME280;11074;48.596;9.238;2023-04-01T00:15:23;96946.13;;;10.22;91.10
21824;BME280;11074;48.596;9.238;2023-04-01T00:17:48;96940.47;;;10.29;91.15
21824;BME280;11074;48.596;9.238;2023-04-01T00:20:15;96943.16;;;10.29;90.40
21824;BME280;11074;48.596;9.238;2023-04-01T00:22:41;96946.88;;;10.28;90.38
21824;BME280;11074;48.596;9.238;2023-04-01T00:25:07;96934.34;;;10.28;89.93
21824;BME280;11074;48.596;9.238;2023-04-01T00:27:33;96935.00;;;10.10;89.09
21824;BME280;11074;48.596;9.238;2023-04-01T00:29:58;96932.38;;;10.05;90.11
21824;BME280;11074;48.596;9.238;2023-04-01T00:32:24;96928.84;;;10.15;89.47
21824;BME280;11074;48.596;9.238;2023-04-01T00:34:52;96928.88;;;10.05;90.13
21824;BME280;11074;48.596;9.238;2023-04-01T00:37:19;96930.72;;;10.09;90.74
21824;BME280;11074;48.596;9.238;2023-04-01T00:39:46;96931.00;;;10.13;90.15
21824;BME280;11074;48.596;9.238;2023-04-01T00:42:12;96926.69;;;10.12;89.33
21824;BME280;11074;48.596;9.238;2023-04-01T00:44:40;96926.69;;;10.12;90.03
21824;BME280;11074;48.596;9.238;2023-04-01T00:47:06;96939.00;;;10.13;89.17
21824;BME280;11074;48.596;9.238;2023-04-01T00:49:43;96924.00;;;10.12;89.50
21824;BME280;11074;48.596;9.238;2023-04-01T00:52:15;96935.00;;;10.10;89.68
21824;BME280;11074;48.596;9.238;2023-04-01T00:54:47;96938.47;;;10.11;89.79
21824;BME280;11074;48.596;9.238;2023-04-01T00:57:30;96941.72;;;10.03;89.76
21824;BME280;11074;48.596;9.238;2023-04-01T00:59:57;96928.09;;;10.04;91.04
21824;BME280;11074;48.596;9.238;2023-04-01T01:02:23;96930.75;;;10.04;90.29
21824;BME280;11074;48.596;9.238;2023-04-01T01:04:49;96925.41;;;10.04;90.15
21824;BME280;11074;48.596;9.238;2023-04-01T01:07:25;96934.22;;;10.05;90.17
21824;BME280;11074;48.596;9.238;2023-04-01T01:18:14;96933.78;;;9.93;89.85
21824;BME280;11074;48.596;9.238;2023-04-01T01:21:30;96932.94;;;9.97;90.13
21824;BME280;11074;48.596;9.238;2023-04-01T01:27:11;96925.94;;;10.06;89.80
21824;BME280;11074;48.596;9.238;2023-04-01T01:32:59;96933.16;;;10.06;89.05
21824;BME280;11074;48.596;9.238;2023-04-01T01:35:36;96930.50;;;10.01;89.35
21824;BME280;11074;48.596;9.238;2023-04-01T01:38:10;96937.97;;;10.04;90.31
21824;BME280;11074;48.596;9.238;2023-04-01T01:40:41;96932.41;;;10.00;89.75
21824;BME280;11074;48.596;9.238;2023-04-01T01:43:12;96930.50;;;10.06;90.02
21824;BME280;11074;48.596;9.238;2023-04-01T01:45:46;96926.81;;;9.97;89.20
21824;BME280;11074;48.596;9.238;2023-04-01T01:48:16;96930.50;;;10.01;88.90
21824;BME280;11074;48.596;9.238;2023-04-01T01:50:45;96926.25;;;10.00;89.66
21824;BME280;11074;48.596;9.238;2023-04-01T01:53:13;96928.72;;;9.91;90.44
21824;BME280;11074;48.596;9.238;2023-04-01T01:55:43;96932.66;;;9.99;90.04
21824;BME280;11074;48.596;9.238;2023-04-01T02:00:57;96934.81;;;9.97;88.91
21824;BME280;11074;48.596;9.238;2023-04-01T02:03:27;96946.38;;;9.87;89.05
21824;BME280;11074;48.596;9.238;2023-04-01T02:05:57;96944.44;;;9.93;89.34
21824;BME280;11074;48.596;9.238;2023-04-01T02:09:15;96941.47;;;9.99;88.97
21824;BME280;11074;48.596;9.238;2023-04-01T02:11:51;96932.66;;;9.99;90.08
21824;BME280;11074;48.596;9.238;2023-04-01T02:14:23;96939.31;;;10.01;88.79
21824;BME280;11074;48.596;9.238;2023-04-01T02:17:02;96939.34;;;9.96;88.81
21824;BME280;11074;48.596;9.238;2023-04-01T02:19:41;96939.66;;;9.95;88.45
21824;BME280;11074;48.596;9.238;2023-04-01T02:22:14;96942.31;;;9.95;89.56
21824;BME280;11074;48.596;9.238;2023-04-01T02:24:43;96930.59;;;9.91;88.91
21824;BME280;11074;48.596;9.238;2023-04-01T02:27:12;96941.50;;;9.94;88.49
21824;BME280;11074;48.596;9.238;2023-04-01T02:29:38;96935.41;;;9.89;87.78
21824;BME280;11074;48.596;9.238;2023-04-01T02:32:07;96945.53;;;9.92;88.13
21824;BME280;11074;48.596;9.238;2023-04-01T02:34:34;96948.25;;;9.87;86.93
21824;BME280;11074;48.596;9.238;2023-04-01T02:37:01;96947.19;;;9.83;87.83
21824;BME280;11074;48.596;9.238;2023-04-01T02:39:27;96947.44;;;9.86;88.36
21824;BME280;11074;48.596;9.238;2023-04-01T02:41:53;96948.75;;;9.89;87.90
21824;BME280;11074;48.596;9.238;2023-04-01T02:44:19;96950.69;;;9.78;87.39
21824;BME280;11074;48.596;9.238;2023-04-01T02:46:44;96964.25;;;9.87;88.07
21824;BME280;11074;48.596;9.238;2023-04-01T02:49:10;96963.47;;;9.86;88.15
21824;BME280;11074;48.596;9.238;2023-04-01T02:51:36;96960.53;;;9.83;87.79
21824;BME280;11074;48.596;9.238;2023-04-01T02:54:02;96957.28;;;9.91;88.49
21824;BME280;11074;48.596;9.238;2023-04-01T02:56:29;96960.78;;;9.86;88.08
21824;BME280;11074;48.596;9.238;2023-04-01T02:58:55;96950.66;;;9.83;87.90
21824;BME280;11074;48.596;9.238;2023-04-01T03:01:21;96949.34;;;9.81;87.90
21824;BME280;11074;48.596;9.238;2023-04-01T03:03:47;96948.28;;;9.82;87.87
21824;BME280;11074;48.596;9.238;2023-04-01T03:06:15;96946.72;;;9.75;86.85
21824;BME280;11074;48.596;9.238;2023-04-01T03:08:42;96949.97;;;9.67;87.30
21824;BME280;11074;48.596;9.238;2023-04-01T03:11:09;96939.28;;;9.67;87.84
21824;BME280;11074;48.596;9.238;2023-04-01T03:13:35;96944.38;;;9.64;87.77
21824;BME280;11074;48.596;9.238;2023-04-01T03:16:02;96951.09;;;9.56;87.48
21824;BME280;11074;48.596;9.238;2023-04-01T03:18:27;96952.69;;;9.57;87.81
21824;BME280;11074;48.596;9.238;2023-04-01T03:20:53;96940.72;;;9.50;87.49
21824;BME280;11074;48.596;9.238;2023-04-01T03:23:19;96950.63;;;9.44;88.51
21824;BME280;11074;48.596;9.238;2023-04-01T03:25:47;96959.16;;;9.46;88.22
21824;BME280;11074;48.596;9.238;2023-04-01T03:28:13;96957.00;;;9.48;88.60
21824;BME280;11074;48.596;9.238;2023-04-01T03:30:39;96966.06;;;9.52;88.90
21824;BME280;11074;48.596;9.238;2023-04-01T03:33:05;96952.72;;;9.52;86.74
21824;BME280;11074;48.596;9.238;2023-04-01T03:35:30;96954.59;;;9.52;88.55
21824;BME280;11074;48.596;9.238;2023-04-01T03:37:57;96954.59;;;9.52;87.38
21824;BME280;11074;48.596;9.238;2023-04-01T03:40:23;96949.47;;;9.55;87.98
21824;BME280;11074;48.596;9.238;2023-04-01T03:42:49;96965.50;;;9.50;87.69
21824;BME280;11074;48.596;9.238;2023-04-01T03:45:15;96947.69;;;9.41;87.18
21824;BME280;11074;48.596;9.238;2023-04-01T03:47:41;96952.19;;;9.45;87.07
21824;BME280;11074;48.596;9.238;2023-04-01T03:50:08;96953.03;;;9.41;87.33
21824;BME280;11074;48.596;9.238;2023-04-01T03:52:34;96954.06;;;9.45;87.10
21824;BME280;11074;48.596;9.238;2023-04-01T03:55:01;96958.09;;;9.42;86.82
21824;BME280;11074;48.596;9.238;2023-04-01T03:57:27;96961.56;;;9.38;87.71
21824;BME280;11074;48.596;9.238;2023-04-01T03:59:53;96957.31;;;9.42;88.20
21824;BME280;11074;48.596;9.238;2023-04-01T04:02:19;96954.63;;;9.42;87.00
21824;BME280;11074;48.596;9.238;2023-04-01T04:04:45;96949.06;;;9.33;86.78
21824;BME280;11074;48.596;9.238;2023-04-01T04:07:12;96940.78;;;9.35;87.35
21824;BME280;11074;48.596;9.238;2023-04-01T04:09:37;96939.75;;;9.31;87.75
21824;BME280;11074;48.596;9.238;2023-04-01T04:12:03;96936.25;;;9.35;87.42
21824;BME280;11074;48.596;9.238;2023-04-01T04:14:33;96930.94;;;9.30;87.12
21824;BME280;11074;48.596;9.238;2023-04-01T04:16:59;96922.94;;;9.30;87.54
21824;BME280;11074;48.596;9.238;2023-04-01T04:19:24;96921.13;;;9.21;87.44
21824;BME280;11074;48.596;9.238;2023-04-01T04:21:53;96927.00;;;9.23;87.83
21824;BME280;11074;48.596;9.238;2023-04-01T04:24:18;96918.44;;;9.26;88.27
21824;BME280;11074;48.596;9.238;2023-04-01T04:26:44;96923.78;;;9.26;88.52
21824;BME280;11074;48.596;9.238;2023-04-01T04:29:10;96918.47;;;9.15;87.33
21824;BME280;11074;48.596;9.238;2023-04-01T04:31:36;96917.41;;;9.17;87.93
21824;BME280;11074;48.596;9.238;2023-04-01T04:34:01;96917.69;;;9.15;87.76
21824;BME280;11074;48.596;9.238;2023-04-01T04:36:27;96919.81;;;9.13;88.34
21824;BME280;11074;48.596;9.238;2023-04-01T04:38:53;96925.69;;;9.15;88.38
21824;BME280;11074;48.596;9.238;2023-04-01T04:41:22;96923.28;;;9.13;88.12
21824;BME280;11074;48.596;9.238;2023-04-01T04:43:53;96926.22;;;9.12;87.94
21824;BME280;11074;48.596;9.238;2023-04-01T04:46:20;96924.59;;;9.16;87.81
21824;BME280;11074;48.596;9.238;2023-04-01T04:48:46;96921.41;;;9.19;87.96
21824;BME280;11074;48.596;9.238;2023-04-01T04:51:17;96919.03;;;9.12;87.89
21824;BME280;11074;48.596;9.238;2023-04-01T04:53:43;96927.56;;;9.09;87.92
21824;BME280;11074;48.596;9.238;2023-04-01T04:56:08;96923.53;;;9.17;88.43
21824;BME280;11074;48.596;9.238;2023-04-01T04:58:38;96926.69;;;9.24;87.83
21824;BME280;11074;48.596;9.238;2023-04-01T05:01:15;96923.81;;;9.21;87.80
21824;BME280;11074;48.596;9.238;2023-04-01T05:03:42;96929.66;;;9.23;88.03
21824;BME280;11074;48.596;9.238;2023-04-01T05:06:10;96925.66;;;9.25;87.88
21824;BME280;11074;48.596;9.238;2023-04-01T05:08:37;96933.34;;;9.27;89.26
21824;BME280;11074;48.596;9.238;2023-04-01T05:11:12;96927.25;;;9.21;89.00
21824;BME280;11074;48.596;9.238;2023-04-01T05:13:38;96923.78;;;9.26;89.08
21824;BME280;11074;48.596;9.238;2023-04-01T05:16:08;96921.34;;;9.29;88.79
21824;BME280;11074;48.596;9.238;2023-04-01T05:18:34;96921.63;;;9.28;88.94
21824;BME280;11074;48.596;9.238;2023-04-01T05:20:59;96913.69;;;9.18;88.11
21824;BME280;11074;48.596;9.238;2023-04-01T05:23:25;96911.50;;;9.25;89.22
21824;BME280;11074;48.596;9.238;2023-04-01T05:25:51;96906.47;;;9.23;87.23
21824;BME280;11074;48.596;9.238;2023-04-01T05:28:19;96902.97;;;9.28;87.61
21824;BME280;11074;48.596;9.238;2023-04-01T05:30:45;96898.94;;;9.30;88.26
21824;BME280;11074;48.596;9.238;2023-04-01T05:33:12;96891.19;;;9.39;87.57
21824;BME280;11074;48.596;9.238;2023-04-01T05:35:39;96899.41;;;9.42;87.25
21824;BME280;11074;48.596;9.238;2023-04-01T05:38:06;96893.28;;;9.42;86.93
21824;BME280;11074;48.596;9.238;2023-04-01T05:40:32;96891.69;;;9.41;86.59
21824;BME280;11074;48.596;9.238;2023-04-01T05:42:59;96896.22;;;9.40;86.30
21824;BME280;11074;48.596;9.238;2023-04-01T05:45:26;96916.75;;;9.40;85.61
21824;BME280;11074;48.596;9.238;2023-04-01T05:47:51;96903.19;;;9.36;86.89
21824;BME280;11074;48.596;9.238;2023-04-01T05:50:18;96886.88;;;9.43;85.16
21824;BME280;11074;48.596;9.238;2023-04-01T05:52:43;96893.00;;;9.43;85.34
21824;BME280;11074;48.596;9.238;2023-04-01T05:55:10;96891.13;;;9.44;85.34
21824;BME280;11074;48.596;9.238;2023-04-01T05:57:36;96888.72;;;9.42;85.49
21824;BME280;11074;48.596;9.238;2023-04-01T06:00:03;96898.06;;;9.50;85.34
21824;BME280;11074;48.596;9.238;2023-04-01T06:02:29;96891.06;;;9.54;85.02
21824;BME280;11074;48.596;9.238;2023-04-01T06:05:20;96897.50;;;9.48;84.45
21824;BME280;11074;48.596;9.238;2023-04-01T06:07:47;96880.41;;;9.54;84.66
21824;BME280;11074;48.596;9.238;2023-04-01T06:10:17;96880.13;;;9.55;84.33
21824;BME280;11074;48.596;9.238;2023-04-01T06:22:13;96862.38;;;9.74;83.83
21824;BME280;11074;48.596;9.238;2023-04-01T06:25:26;96854.88;;;9.82;83.45
21824;BME280;11074;48.596;9.238;2023-04-01T06:31:12;96855.59;;;9.92;82.02
21824;BME280;11074;48.596;9.238;2023-04-01T06:34:19;96861.47;;;9.89;83.24
21824;BME280;11074;48.596;9.238;2023-04-01T06:42:49;96863.34;;;9.89;82.56
21824;BME280;11074;48.596;9.238;2023-04-01T06:46:12;96865.72;;;9.90;82.26
21824;BME280;11074;48.596;9.238;2023-04-01T06:49:21;96872.97;;;9.90;83.00
21824;BME280;11074;48.596;9.238;2023-04-01T06:55:41;96860.91;;;9.92;81.46
21824;BME280;11074;48.596;9.238;2023-04-01T06:58:22;96867.56;;;9.95;81.79
21824;BME280;11074;48.596;9.238;2023-04-01T07:00:58;96857.09;;;9.98;80.84
21824;BME280;11074;48.596;9.238;2023-04-01T07:06:16;96863.16;;;10.09;80.67
21824;BME280;11074;48.596;9.238;2023-04-01T07:08:46;96860.22;;;10.10;81.40
21824;BME280;11074;48.596;9.238;2023-04-01T07:11:29;96855.16;;;10.14;80.90
21824;BME280;11074;48.596;9.238;2023-04-01T07:14:05;96864.13;;;10.23;80.72
21824;BME280;11074;48.596;9.238;2023-04-01T07:16:46;96860.66;;;10.22;80.18
21824;BME280;11074;48.596;9.238;2023-04-01T07:19:41;96870.53;;;10.27;81.21
21824;BME280;11074;48.596;9.238;2023-04-01T07:22:40;96867.75;;;10.37;79.75
21824;BME280;11074;48.596;9.238;2023-04-01T07:25:22;96868.75;;;10.41;79.79
21824;BME280;11074;48.596;9.238;2023-04-01T07:27:56;96859.94;;;10.41;80.17
21824;BME280;11074;48.596;9.238;2023-04-01T07:30:24;96874.66;;;10.38;79.76
21824;BME280;11074;48.596;9.238;2023-04-01T07:33:00;96873.00;;;10.47;79.81
21824;BME280;11074;48.596;9.238;2023-04-01T07:35:43;96878.88;;;10.44;79.43
21824;BME280;11074;48.596;9.238;2023-04-01T07:38:51;96878.63;;;10.46;80.07
21824;BME280;11074;48.596;9.238;2023-04-01T07:44:39;96880.50;;;10.45;80.45
21824;BME280;11074;48.596;9.238;2023-04-01T07:50:32;96880.44;;;10.50;80.45
21824;BME280;11074;48.596;9.238;2023-04-01T07:53:34;96880.94;;;10.52;80.59
21824;BME280;11074;48.596;9.238;2023-04-01T07:59:24;96880.31;;;10.60;79.64
21824;BME280;11074;48.596;9.238;2023-04-01T08:04:57;96881.88;;;10.66;79.04
21824;BME280;11074;48.596;9.238;2023-04-01T08:07:49;96883.97;;;10.69;78.90
21824;BME280;11074;48.596;9.238;2023-04-01T08:10:28;96891.94;;;10.74;78.68
21824;BME280;11074;48.596;9.238;2023-04-01T08:19:19;96891.53;;;10.62;80.52
21824;BME280;11074;48.596;9.238;2023-04-01T08:21:58;96897.91;;;10.66;80.29
21824;BME280;11074;48.596;9.238;2023-04-01T08:24:38;96905.94;;;10.66;80.79
21824;BME280;11074;48.596;9.238;2023-04-01T08:27:41;96902.00;;;10.59;80.35
21824;BME280;11074;48.596;9.238;2023-04-01T08:30:24;96903.81;;;10.63;81.41
21824;BME280;11074;48.596;9.238;2023-04-01T08:35:48;96899.78;;;10.66;81.95
21824;BME280;11074;48.596;9.238;2023-04-01T08:38:24;96912.59;;;10.69;80.74
21824;BME280;11074;48.596;9.238;2023-04-01T08:40:59;96901.66;;;10.65;82.59
21824;BME280;11074;48.596;9.238;2023-04-01T08:43:51;96902.69;;;10.69;81.62
21824;BME280;11074;48.596;9.238;2023-04-01T08:52:58;96912.63;;;10.64;83.14
21824;BME280;11074;48.596;9.238;2023-04-01T08:55:19;96914.25;;;10.60;83.29
21824;BME280;11074;48.596;9.238;2023-04-01T09:01:26;96908.72;;;10.51;84.06
21824;BME280;11074;48.596;9.238;2023-04-01T09:04:41;96911.41;;;10.51;84.22
21824;BME280;11074;48.596;9.238;2023-04-01T09:07:43;96911.94;;;10.53;84.16
21824;BME280;11074;48.596;9.238;2023-04-01T09:13:16;96914.06;;;10.51;84.96
21824;BME280;11074;48.596;9.238;2023-04-01T09:27:10;96923.34;;;10.87;83.73
21824;BME280;11074;48.596;9.238;2023-04-01T09:36:43;96931.06;;;11.13;84.19
21824;BME280;11074;48.596;9.238;2023-04-01T09:39:34;96926.31;;;11.10;83.45
21824;BME280;11074;48.596;9.238;2023-04-01T09:42:23;96930.28;;;11.12;84.78
21824;BME280;11074;48.596;9.238;2023-04-01T09:48:09;96944.44;;;11.13;84.15
21824;BME280;11074;48.596;9.238;2023-04-01T09:54:17;96946.97;;;11.04;84.96
21824;BME280;11074;48.596;9.238;2023-04-01T10:03:07;96949.16;;;10.97;85.06
21824;BME280;11074;48.596;9.238;2023-04-01T10:18:51;96960.59;;;11.03;86.42
21824;BME280;11074;48.596;9.238;2023-04-01T10:25:40;96954.31;;;10.93;86.41
21824;BME280;11074;48.596;9.238;2023-04-01T10:36:55;96952.81;;;10.82;86.68
21824;BME280;11074;48.596;9.238;2023-04-01T10:39:49;96959.47;;;10.85;87.55
21824;BME280;11074;48.596;9.238;2023-04-01T10:46:22;96964.38;;;11.02;87.46
21824;BME280;11074;48.596;9.238;2023-04-01T10:49:02;96961.84;;;11.10;86.88
21824;BME280;11074;48.596;9.238;2023-04-01T10:55:10;96957.53;;;11.14;86.62
21824;BME280;11074;48.596;9.238;2023-04-01T10:58:43;96959.75;;;11.31;84.90
21824;BME280;11074;48.596;9.238;2023-04-01T11:34:16;96969.09;;;11.76;83.24
21824;BME280;11074;48.596;9.238;2023-04-01T11:37:06;96980.91;;;11.75;82.85
21824;BME280;11074;48.596;9.238;2023-04-01T11:40:18;96980.50;;;11.63;83.65
21824;BME280;11074;48.596;9.238;2023-04-01T11:43:10;96968.81;;;11.53;84.19
21824;BME280;11074;48.596;9.238;2023-04-01T11:48:56;96979.38;;;11.45;84.77
21824;BME280;11074;48.596;9.238;2023-04-01T11:54:42;96976.34;;;11.75;83.81
21824;BME280;11074;48.596;9.238;2023-04-01T12:00:22;96979.03;;;11.94;82.07
21824;BME280;11074;48.596;9.238;2023-04-01T12:03:21;97003.22;;;11.89;81.71
21824;BME280;11074;48.596;9.238;2023-04-01T12:06:07;96988.44;;;11.91;81.05
21824;BME280;11074;48.596;9.238;2023-04-01T12:09:03;96982.63;;;12.03;82.43
21824;BME280;11074;48.596;9.238;2023-04-01T12:17:10;96993.94;;;12.00;80.07
21824;BME280;11074;48.596;9.238;2023-04-01T12:23:32;96993.56;;;12.06;78.38
21824;BME280;11074;48.596;9.238;2023-04-01T12:38:07;96994.19;;;12.36;78.37
21824;BME280;11074;48.596;9.238;2023-04-01T12:40:56;96997.50;;;12.46;78.20
21824;BME280;11074;48.596;9.238;2023-04-01T12:47:00;97002.44;;;12.58;77.19
21824;BME280;11074;48.596;9.238;2023-04-01T12:49:55;96994.38;;;12.58;78.56
21824;BME280;11074;48.596;9.238;2023-04-01T12:52:57;96999.25;;;12.56;77.83
21824;BME280;11074;48.596;9.238;2023-04-01T12:55:42;97007.34;;;12.51;77.87
21824;BME280;11074;48.596;9.238;2023-04-01T12:58:56;97000.69;;;12.48;76.84
21824;BME280;11074;48.596;9.238;2023-04-01T13:01:49;97017.75;;;12.39;75.70
21824;BME280;11074;48.596;9.238;2023-04-01T13:10:31;97013.56;;;12.65;75.03
21824;BME280;11074;48.596;9.238;2023-04-01T13:16:31;97006.72;;;12.72;73.50
21824;BME280;11074;48.596;9.238;2023-04-01T13:25:06;97009.22;;;13.15;72.63
21824;BME280;11074;48.596;9.238;2023-04-01T13:27:44;97012.16;;;13.00;72.27
21824;BME280;11074;48.596;9.238;2023-04-01T13:30:48;97018.97;;;13.11;71.90
21824;BME280;11074;48.596;9.238;2023-04-01T13:34:00;97011.78;;;13.06;71.22
21824;BME280;11074;48.596;9.238;2023-04-01T13:39:46;97019.56;;;12.75;72.43
21824;BME280;11074;48.596;9.238;2023-04-01T13:42:38;97018.53;;;12.58;72.02
21824;BME280;11074;48.596;9.238;2023-04-01T13:45:26;97027.47;;;12.67;72.02
21824;BME280;11074;48.596;9.238;2023-04-01T13:48:18;97019.78;;;12.79;71.90
21824;BME280;11074;48.596;9.238;2023-04-01T13:51:18;97029.66;;;12.65;72.40
21824;BME280;11074;48.596;9.238;2023-04-01T14:00:11;97037.78;;;12.60;72.00
21824;BME280;11074;48.596;9.238;2023-04-01T14:03:28;97040.38;;;12.65;72.49
21824;BME280;11074;48.596;9.238;2023-04-01T14:06:19;97030.75;;;12.64;72.14
21824;BME280;11074;48.596;9.238;2023-04-01T14:18:33;97052.84;;;12.74;71.48
21824;BME280;11074;48.596;9.238;2023-04-01T14:21:26;97044.44;;;12.62;71.65
21824;BME280;11074;48.596;9.238;2023-04-01T14:24:45;97044.66;;;12.66;71.89
21824;BME280;11074;48.596;9.238;2023-04-01T14:27:42;97047.13;;;12.62;71.85
21824;BME280;11074;48.596;9.238;2023-04-01T14:39:42;97054.25;;;12.53;71.95
21824;BME280;11074;48.596;9.238;2023-04-01T14:42:41;97046.72;;;12.37;71.95
21824;BME280;11074;48.596;9.238;2023-04-01T14:48:36;97054.25;;;12.35;72.54
21824;BME280;11074;48.596;9.238;2023-04-01T14:51:29;97049.97;;;12.34;72.36
21824;BME280;11074;48.596;9.238;2023-04-01T14:54:15;97056.56;;;12.41;72.56
21824;BME280;11074;48.596;9.238;2023-04-01T14:57:16;97058.28;;;12.51;71.92
21824;BME280;11074;48.596;9.238;2023-04-01T14:59:54;97061.81;;;12.65;71.49
21824;BME280;11074;48.596;9.238;2023-04-01T15:08:29;97055.66;;;12.64;71.19
21824;BME280;11074;48.596;9.238;2023-04-01T15:11:19;97054.38;;;12.62;72.14
21824;BME280;11074;48.596;9.238;2023-04-01T15:14:18;97061.16;;;12.73;71.66
21824;BME280;11074;48.596;9.238;2023-04-01T15:17:22;97059.66;;;12.67;71.73
21824;BME280;11074;48.596;9.238;2023-04-01T15:20:29;97065.22;;;12.70;72.00
21824;BME280;11074;48.596;9.238;2023-04-01T15:32:02;97086.19;;;12.50;72.82
21824;BME280;11074;48.596;9.238;2023-04-01T15:34:54;97074.38;;;12.32;73.90
21824;BME280;11074;48.596;9.238;2023-04-01T15:37:58;97087.66;;;12.24;73.68
21824;BME280;11074;48.596;9.238;2023-04-01T15:43:44;97074.31;;;12.19;75.09
21824;BME280;11074;48.596;9.238;2023-04-01T15:46:39;97090.31;;;12.24;74.66
21824;BME280;11074;48.596;9.238;2023-04-01T15:49:28;97097.69;;;12.13;75.01
21824;BME280;11074;48.596;9.238;2023-04-01T15:52:09;97094.31;;;12.26;74.64
21824;BME280;11074;48.596;9.238;2023-04-01T15:58:04;97091.56;;;12.31;74.76
21824;BME280;11074;48.596;9.238;2023-04-01T16:06:49;97091.25;;;12.33;74.81
21824;BME280;11074;48.596;9.238;2023-04-01T16:13:03;97096.91;;;12.12;74.94
21824;BME280;11074;48.596;9.238;2023-04-01T16:16:00;97105.44;;;12.14;75.42
21824;BME280;11074;48.596;9.238;2023-04-01T16:19:10;97102.25;;;12.12;74.76
21824;BME280;11074;48.596;9.238;2023-04-01T16:21:59;97109.78;;;12.10;74.92
21824;BME280;11074;48.596;9.238;2023-04-01T16:24:38;97099.66;;;12.07;74.20
21824;BME280;11074;48.596;9.238;2023-04-01T16:27:12;97086.34;;;12.21;74.27
21824;BME280;11074;48.596;9.238;2023-04-01T16:32:58;97090.31;;;12.24;73.43
21824;BME280;11074;48.596;9.238;2023-04-01T16:41:47;97097.06;;;12.21;72.77
21824;BME280;11074;48.596;9.238;2023-04-01T16:44:25;97091.69;;;12.21;72.93
21824;BME280;11074;48.596;9.238;2023-04-01T16:46:58;97090.66;;;12.17;72.98
21824;BME280;11074;48.596;9.238;2023-04-01T16:49:36;97114.13;;;12.06;72.56
21824;BME280;11074;48.596;9.238;2023-04-01T16:54:59;97111.06;;;11.94;73.33
21824;BME280;11074;48.596;9.238;2023-04-01T17:09:05;97112.47;;;12.10;73.05
21824;BME280;11074;48.596;9.238;2023-04-01T17:15:01;97113.63;;;12.04;72.96
21824;BME280;11074;48.596;9.238;2023-04-01T17:20:54;97113.16;;;11.97;74.23
21824;BME280;11074;48.596;9.238;2023-04-01T17:23:30;97104.16;;;11.88;73.72
21824;BME280;11074;48.596;9.238;2023-04-01T17:26:37;97116.19;;;11.91;73.50
21824;BME280;11074;48.596;9.238;2023-04-01T17:29:24;97117.00;;;11.91;74.54
21824;BME280;11074;48.596;9.238;2023-04-01T17:35:13;97120.97;;;11.94;74.17
21824;BME280;11074;48.596;9.238;2023-04-01T17:41:31;97134.94;;;11.91;74.78
21824;BME280;11074;48.596;9.238;2023-04-01T17:44:33;97134.69;;;11.87;75.19
21824;BME280;11074;48.596;9.238;2023-04-01T17:50:00;97137.22;;;11.79;76.07
21824;BME280;11074;48.596;9.238;2023-04-01T17:53:07;97136.75;;;11.72;76.31
21824;BME280;11074;48.596;9.238;2023-04-01T17:55:55;97149.91;;;11.68;75.51
21824;BME280;11074;48.596;9.238;2023-04-01T17:58:44;97150.44;;;11.70;76.83
21824;BME280;11074;48.596;9.238;2023-04-01T18:04:08;97153.13;;;11.65;76.46
21824;BME280;11074;48.596;9.238;2023-04-01T18:07:18;97154.19;;;11.69;75.75
21824;BME280;11074;48.596;9.238;2023-04-01T18:16:23;97169.97;;;11.71;75.70
21824;BME280;11074;48.596;9.238;2023-04-01T18:19:42;97160.88;;;11.67;75.58
21824;BME280;11074;48.596;9.238;2023-04-01T18:22:29;97173.72;;;11.70;75.30
21824;BME280;11074;48.596;9.238;2023-04-01T18:25:29;97180.09;;;11.74;75.09
21824;BME280;11074;48.596;9.238;2023-04-01T18:28:18;97180.94;;;11.69;75.45
21824;BME280;11074;48.596;9.238;2023-04-01T18:33:56;97203.44;;;11.68;76.79
21824;BME280;11074;48.596;9.238;2023-04-01T18:36:53;97215.50;;;11.71;77.41
21824;BME280;11074;48.596;9.238;2023-04-01T18:39:42;97219.00;;;11.61;78.79
21824;BME280;11074;48.596;9.238;2023-04-01T18:44:50;97253.81;;;11.61;80.48
21824;BME280;11074;48.596;9.238;2023-04-01T18:47:42;97261.16;;;11.45;82.41
21824;BME280;11074;48.596;9.238;2023-04-01T18:55:54;97252.13;;;11.36;83.53
21824;BME280;11074;48.596;9.238;2023-04-01T18:58:45;97251.66;;;11.29;83.78
21824;BME280;11074;48.596;9.238;2023-04-01T19:01:17;97252.50;;;11.25;83.84
21824;BME280;11074;48.596;9.238;2023-04-01T19:06:35;97248.00;;;11.15;83.76
21824;BME280;11074;48.596;9.238;2023-04-01T19:21:19;97248.44;;;10.93;86.33
21824;BME280;11074;48.596;9.238;2023-04-01T19:29:53;97255.44;;;10.79;87.19
21824;BME280;11074;48.596;9.238;2023-04-01T19:39:00;97266.19;;;10.69;88.77
21824;BME280;11074;48.596;9.238;2023-04-01T19:41:42;97271.31;;;10.61;88.44
21824;BME280;11074;48.596;9.238;2023-04-01T19:47:00;97278.53;;;10.55;88.23
21824;BME280;11074;48.596;9.238;2023-04-01T19:52:29;97276.16;;;10.49;89.03
21824;BME280;11074;48.596;9.238;2023-04-01T19:58:45;97271.63;;;10.49;88.63
21824;BME280;11074;48.596;9.238;2023-04-01T20:04:47;97277.47;;;10.51;88.21
21824;BME280;11074;48.596;9.238;2023-04-01T20:07:24;97271.91;;;10.48;87.34
21824;BME280;11074;48.596;9.238;2023-04-01T20:10:32;97281.78;;;10.47;87.65
21824;BME280;11074;48.596;9.238;2023-04-01T20:15:45;97303.22;;;10.32;88.33
21824;BME280;11074;48.596;9.238;2023-04-01T20:18:52;97304.56;;;10.29;88.65
21824;BME280;11074;48.596;9.238;2023-04-01T20:21:43;97311.25;;;10.27;88.93
21824;BME280;11074;48.596;9.238;2023-04-01T20:26:47;97305.34;;;10.25;88.42
21824;BME280;11074;48.596;9.238;2023-04-01T20:30:00;97300.56;;;10.17;88.25
21824;BME280;11074;48.596;9.238;2023-04-01T20:33:28;97312.84;;;10.03;89.09
21824;BME280;11074;48.596;9.238;2023-04-01T20:42:39;97318.19;;;9.98;88.67